Pagrindinis puslapis
METAR-TAF:

METAR-TAF

Oro uostai :

Šeleftėjas, Švedija

platuma: 64-38N, ilguma: 021-05E, Aukštis: 49 m

Dabartinis oras

Ataskaita buvo paskelbta 6 valandos ir 22 minutes, ne 17:50 UTC
Vėjas 9 kt iš Pietų, svyruoja nuo Pietryčių ir Pietvakarių
Temperatūra 22°C
Drėgmė 73%
Slėgis 1012 hPa
Matomumas 10 km arba daugiau
nėra debesų žemiau 1500 m ir nėra kamuolinių lietaus debesų

METAR: ESNS 021750Z 17009KT 140V220 CAVOK 22/17 Q1012

Laikas: 02:12 (00:12 UTC)

Prognozė

Ataskaita buvo paskelbta 9 valandos ir 42 minutes, ne 14:30 UTC
Prognozė galioja nuo 02 metu 15 UTC su 02 metu 18 UTC
Vėjas 9 kt iš Pietų/Pietryčių
Matomumas 10 km arba daugiau
Išsisklaidę debesys ne aukštis 3000 ft
Tikimybė 40%
nuo 02 metu 15 UTC su 02 metu 18 UTC
Matomumas: 4000 m
Su prošvaistėmis ne aukštis 1200 ft
Su prošvaistėmis ne aukštis 5000 ft, Liūtiniai kamuoliniai debesys.
perkūnija, lietus

TAF: ESNS 021430Z 0215/0218 15009KT 9999 SCT030 PROB40 0215/0218 4000 TSRA BKN012 BKN050CB

Orai ataskaitas ir orų prognozės (METAR, TAF).

turimą stotys yra geltonos ir raudonos taškus žemėlapyje.

Perkelti pele per norėdami pamatyti stoties vardą.

Tada spustelėkite, norėdami matyti oro stebėjimo ir prognozės.

Norėdami pakeisti žemėlapį: spustelėkite ant žalios mygtukų su juodo kryžiaus žemyn,; žalią mygtuką su brūkšneliu, jei norite nutolinti; arba žalių rodyklių gretimoms žemėlapius.


METAR-TAF: